createdAt,value
2019-02-28T00:01:03.032Z,9.90
2019-02-28T00:06:28.004Z,9.80
2019-02-28T00:11:44.826Z,9.80
2019-02-28T00:17:01.961Z,9.80
2019-02-28T00:22:18.502Z,9.70
2019-02-28T00:27:35.155Z,9.70
2019-02-28T00:32:51.754Z,9.70
2019-02-28T00:38:08.641Z,9.60
2019-02-28T00:43:25.792Z,9.60
2019-02-28T00:48:42.219Z,9.70
2019-02-28T00:53:58.762Z,9.60
2019-02-28T00:59:15.612Z,9.50
2019-02-28T01:04:32.279Z,9.40
2019-02-28T01:09:48.906Z,9.40
2019-02-28T01:15:07.191Z,9.00
2019-02-28T01:20:23.704Z,9.00
2019-02-28T01:25:40.931Z,9.00
2019-02-28T01:30:57.339Z,9.20
2019-02-28T01:36:15.644Z,9.00
2019-02-28T01:41:32.007Z,9.00
2019-02-28T01:46:49.389Z,9.10
2019-02-28T01:52:09.629Z,8.90
2019-02-28T01:57:24.382Z,8.80
2019-02-28T02:02:41.825Z,8.80
2019-02-28T02:07:58.547Z,8.70
2019-02-28T02:13:15.666Z,8.60
2019-02-28T02:18:32.462Z,8.50
2019-02-28T02:23:49.569Z,8.40
2019-02-28T02:29:07.643Z,8.40
2019-02-28T02:34:24.354Z,8.40
2019-02-28T02:39:41.937Z,8.40
2019-02-28T02:44:59.010Z,8.30
2019-02-28T02:50:15.673Z,8.30
2019-02-28T02:55:32.343Z,8.30
2019-02-28T03:00:51.182Z,8.30
2019-02-28T03:06:12.106Z,8.30
2019-02-28T03:11:26.199Z,8.30
2019-02-28T03:16:44.059Z,8.30
2019-02-28T03:22:01.687Z,8.20
2019-02-28T03:27:20.007Z,8.00
2019-02-28T03:32:41.909Z,8.00
2019-02-28T03:37:55.515Z,8.10
2019-02-28T03:43:12.513Z,8.20
2019-02-28T03:48:34.642Z,8.10
2019-02-28T03:53:47.909Z,8.00
2019-02-28T03:59:04.986Z,7.90
2019-02-28T04:04:21.815Z,7.90
2019-02-28T04:09:43.719Z,8.00
2019-02-28T04:14:57.527Z,7.90
2019-02-28T04:20:14.341Z,7.90
2019-02-28T04:25:31.361Z,7.90
2019-02-28T04:30:48.117Z,7.80
2019-02-28T04:36:05.202Z,7.80
2019-02-28T04:41:22.040Z,7.70
2019-02-28T04:46:38.851Z,7.70
2019-02-28T04:51:55.775Z,7.70
2019-02-28T04:57:12.874Z,7.70
2019-02-28T05:02:29.814Z,7.70
2019-02-28T05:07:46.392Z,7.80
2019-02-28T05:13:03.286Z,7.70
2019-02-28T05:18:20.057Z,7.70
2019-02-28T05:23:36.998Z,7.60
2019-02-28T05:28:54.200Z,7.70
2019-02-28T05:34:13.229Z,7.80
2019-02-28T05:39:30.977Z,8.20
2019-02-28T05:44:46.904Z,8.60
2019-02-28T05:50:03.475Z,8.80
2019-02-28T05:55:24.439Z,8.90
2019-02-28T06:00:39.038Z,8.90
2019-02-28T06:05:55.819Z,8.90
2019-02-28T06:11:12.852Z,8.90
2019-02-28T06:16:29.859Z,9.00
2019-02-28T06:21:46.921Z,9.00
2019-02-28T06:27:06.769Z,9.00
2019-02-28T06:32:23.589Z,9.00
2019-02-28T06:37:41.743Z,9.00
2019-02-28T06:42:58.771Z,9.10
2019-02-28T06:48:15.635Z,9.10
2019-02-28T06:53:36.202Z,9.20
2019-02-28T06:58:52.573Z,9.20
2019-02-28T07:04:11.495Z,9.20
2019-02-28T07:09:28.174Z,9.30
2019-02-28T07:14:49.379Z,9.30
2019-02-28T07:20:03.332Z,9.30
2019-02-28T07:25:19.969Z,9.50
2019-02-28T07:30:36.877Z,9.50
2019-02-28T07:35:53.785Z,9.50
2019-02-28T07:41:10.487Z,9.50
2019-02-28T07:46:27.909Z,9.50
2019-02-28T07:51:45.057Z,9.60
2019-02-28T07:57:01.771Z,9.60
2019-02-28T08:02:18.902Z,9.60
2019-02-28T08:07:35.453Z,9.70
2019-02-28T08:12:52.097Z,9.70
2019-02-28T08:18:08.807Z,9.70
2019-02-28T08:23:29.918Z,9.70
2019-02-28T08:28:43.708Z,9.80
2019-02-28T08:34:00.617Z,9.80
2019-02-28T08:39:17.378Z,9.80
2019-02-28T08:44:34.242Z,9.90
2019-02-28T08:49:50.989Z,10.00
2019-02-28T08:55:10.673Z,10.10
2019-02-28T09:00:31.045Z,10.10
2019-02-28T09:05:46.385Z,10.20
2019-02-28T09:11:03.252Z,10.40
2019-02-28T09:16:20.156Z,10.50
2019-02-28T09:21:36.771Z,10.60
2019-02-28T09:26:53.915Z,10.70
2019-02-28T09:32:13.545Z,10.80
2019-02-28T09:37:29.807Z,10.80
2019-02-28T09:42:47.919Z,10.90
2019-02-28T09:48:04.929Z,10.90
2019-02-28T09:53:21.937Z,10.90
2019-02-28T09:58:38.324Z,10.80
2019-02-28T10:03:55.325Z,10.80
2019-02-28T10:09:13.060Z,10.90
2019-02-28T10:14:30.173Z,10.90
2019-02-28T10:19:49.161Z,10.90
2019-02-28T10:25:06.490Z,11.00
2019-02-28T10:30:31.135Z,11.10
2019-02-28T10:35:43.033Z,11.20
2019-02-28T10:41:00.004Z,11.20
2019-02-28T10:46:20.112Z,11.30
2019-02-28T10:51:35.568Z,11.30
2019-02-28T10:56:52.215Z,11.40
2019-02-28T11:02:08.956Z,11.40
2019-02-28T11:07:25.597Z,11.40
2019-02-28T11:12:42.446Z,11.40
2019-02-28T11:17:59.556Z,11.40
2019-02-28T11:23:16.279Z,11.40
2019-02-28T11:28:32.879Z,11.50
2019-02-28T11:33:49.669Z,11.60
2019-02-28T11:39:06.865Z,11.90
2019-02-28T11:44:23.307Z,12.00
2019-02-28T11:49:39.894Z,12.00
2019-02-28T11:54:56.476Z,11.90
2019-02-28T12:00:13.482Z,11.90
2019-02-28T12:05:30.706Z,11.90
2019-02-28T12:10:47.397Z,11.90
2019-02-28T12:16:04.143Z,11.90
2019-02-28T12:21:21.108Z,11.90
2019-02-28T12:26:37.750Z,12.00
2019-02-28T12:31:54.581Z,12.10
2019-02-28T12:37:11.630Z,12.10
2019-02-28T12:42:28.077Z,12.20
2019-02-28T12:47:45.902Z,12.00
2019-02-28T12:53:02.838Z,11.80
2019-02-28T12:58:20.125Z,11.70
2019-02-28T13:03:36.522Z,11.70
2019-02-28T13:08:53.805Z,11.70
2019-02-28T13:14:10.616Z,11.70
2019-02-28T13:19:27.353Z,11.80
2019-02-28T13:24:46.238Z,11.80
2019-02-28T13:30:05.369Z,11.90
2019-02-28T13:35:22.106Z,12.10
2019-02-28T13:40:40.784Z,12.10
2019-02-28T13:45:57.799Z,12.10
2019-02-28T13:51:14.844Z,12.10
2019-02-28T13:56:33.077Z,12.20
2019-02-28T14:01:52.031Z,12.50
2019-02-28T14:07:08.321Z,12.70
2019-02-28T14:12:25.274Z,12.60
2019-02-28T14:17:42.130Z,12.20
2019-02-28T14:22:58.956Z,11.80
2019-02-28T14:28:15.860Z,11.50
2019-02-28T14:33:32.837Z,11.30
2019-02-28T14:38:49.702Z,11.20
2019-02-28T14:44:06.792Z,11.20
2019-02-28T14:49:23.342Z,11.10
2019-02-28T14:54:40.110Z,11.10
2019-02-28T14:59:56.314Z,11.10
2019-02-28T15:05:16.602Z,11.10
2019-02-28T15:10:34.246Z,11.30
2019-02-28T15:15:53.251Z,11.50
2019-02-28T15:21:08.680Z,11.60
2019-02-28T15:26:26.561Z,11.70
2019-02-28T15:31:44.658Z,11.70
2019-02-28T15:37:01.652Z,11.80
2019-02-28T15:42:18.621Z,11.80
2019-02-28T15:47:35.461Z,11.80
2019-02-28T15:52:52.653Z,11.90
2019-02-28T15:58:08.937Z,11.90
2019-02-28T16:03:25.851Z,12.00
2019-02-28T16:08:46.841Z,12.00
2019-02-28T16:14:01.262Z,12.00
2019-02-28T16:19:18.862Z,12.00
2019-02-28T16:24:39.619Z,12.00
2019-02-28T16:29:55.805Z,11.90
2019-02-28T16:35:14.603Z,11.90
2019-02-28T16:40:30.883Z,11.90
2019-02-28T16:45:49.342Z,11.90
2019-02-28T16:51:05.685Z,11.90
2019-02-28T16:56:22.958Z,11.80
2019-02-28T17:01:39.310Z,11.90
2019-02-28T17:06:56.998Z,11.80
2019-02-28T17:12:32.935Z,11.80
2019-02-28T17:18:14.584Z,11.80
2019-02-28T17:23:33.804Z,11.80
2019-02-28T17:34:27.681Z,11.90
2019-02-28T17:39:47.409Z,11.90
2019-02-28T17:45:02.702Z,11.90
2019-02-28T17:50:19.779Z,11.90
2019-02-28T17:55:36.893Z,11.90
2019-02-28T18:00:54.063Z,11.90
2019-02-28T18:06:12.061Z,12.00
2019-02-28T18:11:30.875Z,12.00
2019-02-28T18:16:47.584Z,11.90
2019-02-28T18:22:04.578Z,11.80
2019-02-28T18:27:21.277Z,12.00
2019-02-28T18:32:58.063Z,11.90
2019-02-28T18:38:35.736Z,11.90
2019-02-28T18:44:13.459Z,11.90
2019-02-28T18:49:50.468Z,11.80
2019-02-28T18:55:34.654Z,11.70
2019-02-28T19:01:05.388Z,11.60
2019-02-28T19:06:23.262Z,11.50
2019-02-28T19:11:40.712Z,11.50
2019-02-28T19:16:58.506Z,11.60
2019-02-28T19:22:15.544Z,11.40
2019-02-28T19:27:32.926Z,11.40
2019-02-28T19:33:09.913Z,11.40
2019-02-28T19:38:27.758Z,11.40
2019-02-28T19:43:45.188Z,11.30
2019-02-28T19:49:02.125Z,11.30
2019-02-28T19:54:19.033Z,11.30
2019-02-28T19:59:36.065Z,11.30
2019-02-28T20:04:53.275Z,11.30
2019-02-28T20:10:10.485Z,11.30
2019-02-28T20:15:29.908Z,11.30
2019-02-28T20:20:46.997Z,11.30
2019-02-28T20:26:04.643Z,11.30
2019-02-28T20:31:21.815Z,11.20
2019-02-28T20:36:39.047Z,11.20
2019-02-28T20:41:56.106Z,11.20
2019-02-28T20:47:13.055Z,11.20
2019-02-28T20:52:30.353Z,11.10
2019-02-28T20:57:47.266Z,11.10
2019-02-28T21:03:04.108Z,11.10
2019-02-28T21:08:21.189Z,11.10
2019-02-28T21:13:38.045Z,11.10
2019-02-28T21:18:55.711Z,11.10
2019-02-28T21:24:12.885Z,11.10
2019-02-28T21:29:29.894Z,11.00
2019-02-28T21:34:47.136Z,11.00
2019-02-28T21:40:04.225Z,10.90
2019-02-28T21:45:21.479Z,10.90
2019-02-28T21:50:38.983Z,10.90
2019-02-28T21:55:56.248Z,10.90
2019-02-28T22:01:13.870Z,10.90
2019-02-28T22:06:31.209Z,10.80
2019-02-28T22:11:48.138Z,10.80
2019-02-28T22:17:06.103Z,10.80
2019-02-28T22:22:23.527Z,10.80
2019-02-28T22:27:40.521Z,10.70
2019-02-28T22:32:59.711Z,10.70
2019-02-28T22:38:16.807Z,10.70
2019-02-28T22:43:34.458Z,10.70
2019-02-28T22:48:51.445Z,10.70
2019-02-28T22:54:09.019Z,10.70
2019-02-28T22:59:26.106Z,10.70
2019-02-28T23:04:43.226Z,10.70
2019-02-28T23:10:01.192Z,10.70
2019-02-28T23:15:17.997Z,10.60
2019-02-28T23:20:35.728Z,10.60
2019-02-28T23:25:52.829Z,10.70
2019-02-28T23:31:10.590Z,10.70
2019-02-28T23:36:27.575Z,10.70
2019-02-28T23:41:44.520Z,10.70
2019-02-28T23:47:02.254Z,10.70
2019-02-28T23:52:22.314Z,10.70
2019-02-28T23:57:40.001Z,10.70
